Maersk Dispatcher — XJAJ — position and weather

sailwx.info

Track history (hours):
 
Tides and Currents Weather Stations Pressure Air Temp Water Temp Dewpoint Dewpoint Depression Visibility Wind Speed Wind Dir Waves Ship Positions

Maersk Dispatcher

Last reported at 2014-Aug-22 00:29 UTC. Time now 2014-Aug-22 17:40 UTC.
Position N 47°28' W 052°06'.

Length 89 m; draft 6.8 m.

Type: Other ship. MMSI: 316013080.

Date/timePositionNaut miles runAvg speedWind from/ knotsBaromVisibWave heightAir tempDewpointWater temp
2014-Aug-22 00:29N 47°28' W 052°06'1111.6
2014-Aug-21 23:33N 47°31' W 052°22'1211.9
2014-Aug-21 22:33N 47°34' W 052°39'2 2.2
2014-Aug-21 21:33N 47°34' W 052°42'0 0.0
2014-Aug-21 20:30N 47°34' W 052°42'0 0.0
2014-Aug-21 19:30N 47°34' W 052°42'0 0.0
2014-Aug-21 18:30N 47°34' W 052°42'0 0.0
2014-Aug-21 17:27N 47°34' W 052°42'0 0.0
2014-Aug-21 16:33N 47°34' W 052°42'0 0.0
2014-Aug-21 15:33N 47°34' W 052°42'0 0.0
2014-Aug-21 14:30N 47°34' W 052°42'0 0.0
2014-Aug-21 13:30N 47°34' W 052°42'0 0.0
2014-Aug-21 12:21N 47°34' W 052°42'0 0.0
2014-Aug-21 11:30N 47°34' W 052°42'0 0.0
2014-Aug-21 10:33N 47°34' W 052°42'0 0.0
2014-Aug-21 09:33N 47°34' W 052°42'0 0.0
2014-Aug-21 08:33N 47°34' W 052°42'0 0.0
2014-Aug-21 07:30N 47°34' W 052°42'0 0.0
2014-Aug-21 06:33N 47°34' W 052°42'0 0.0
2014-Aug-21 05:33N 47°34' W 052°42'0 0.0
2014-Aug-21 04:33N 47°34' W 052°42'0 0.0
2014-Aug-21 03:33N 47°34' W 052°42'0 0.0
2014-Aug-21 02:33N 47°34' W 052°42'0 0.0
2014-Aug-21 01:33N 47°34' W 052°42'0 0.0
2014-Aug-21 00:27N 47°34' W 052°42'0 0.0
2014-Aug-20 23:33N 47°34' W 052°42'0 0.0
2014-Aug-20 22:27N 47°34' W 052°42'0 0.0
2014-Aug-20 21:15N 47°34' W 052°42'0 0.0
2014-Aug-20 20:30N 47°34' W 052°42'0 0.0
2014-Aug-20 19:33N 47°34' W 052°42'0 0.0
2014-Aug-20 18:27N 47°34' W 052°42'0 0.0
2014-Aug-20 17:24N 47°34' W 052°42'0 0.0
2014-Aug-20 16:30N 47°34' W 052°42'0 0.0
2014-Aug-20 15:33N 47°34' W 052°42'0 0.0
2014-Aug-20 14:30N 47°34' W 052°42'7 6.4
2014-Aug-20 13:29N 47°33' W 052°33'1212.7
2014-Aug-20 12:33N 47°30' W 052°16'6 0.2
2014-Aug-18 23:32N 47°29' W 052°07'1414.3
2014-Aug-18 22:32N 47°32' W 052°28'10 9.3
2014-Aug-18 21:30N 47°34' W 052°42'0 0.0
2014-Aug-18 20:30N 47°34' W 052°42'0 0.0
2014-Aug-18 19:33N 47°34' W 052°42'0 0.0
2014-Aug-18 18:30N 47°34' W 052°42'0 0.0
2014-Aug-18 17:33N 47°34' W 052°42'0 0.0
2014-Aug-18 16:33N 47°34' W 052°42'0 0.0
2014-Aug-18 15:27N 47°34' W 052°42'0 0.0
2014-Aug-18 14:30N 47°34' W 052°42'0 0.0
2014-Aug-18 13:30N 47°34' W 052°42'0 0.0
2014-Aug-18 12:30N 47°34' W 052°42'0 0.0
2014-Aug-18 11:33N 47°34' W 052°42'0 0.0
2014-Aug-18 10:33N 47°34' W 052°42'0 0.0
2014-Aug-18 09:27N 47°34' W 052°42'0 0.0
2014-Aug-18 08:30N 47°34' W 052°42'0 0.0
2014-Aug-18 07:33N 47°34' W 052°42'0 0.0
2014-Aug-18 06:33N 47°34' W 052°42'0 0.0
2014-Aug-18 05:33N 47°34' W 052°42'0 0.0
2014-Aug-18 04:30N 47°34' W 052°42'0 0.0
2014-Aug-18 03:30N 47°34' W 052°42'0 0.0
2014-Aug-18 02:27N 47°34' W 052°42'0 0.0
2014-Aug-18 01:27N 47°34' W 052°42'0 0.0
2014-Aug-18 00:30N 47°34' W 052°42'0 0.0
2014-Aug-17 18:33N 47°34' W 052°42'0 0.1
2014-Aug-17 17:30N 47°34' W 052°42'0 0.0
2014-Aug-17 16:30N 47°34' W 052°42'0 0.5
2014-Aug-17 15:33N 47°34' W 052°42'0 0.0
2014-Aug-17 14:33N 47°34' W 052°42'0 0.0
2014-Aug-17 13:33N 47°34' W 052°42'0 0.0
2014-Aug-17 12:33N 47°34' W 052°42'0 0.0
2014-Aug-17 11:33N 47°34' W 052°42'0 0.4
2014-Aug-17 10:32N 47°34' W 052°42'0 0.0
2014-Aug-17 09:26N 47°34' W 052°42'0 0.0
2014-Aug-17 08:32N 47°34' W 052°42'0 0.0
2014-Aug-17 07:32N 47°34' W 052°42'0 0.0
2014-Aug-17 06:29N 47°34' W 052°42'0 0.0
2014-Aug-17 05:29N 47°34' W 052°42'0 0.0
2014-Aug-17 04:26N 47°34' W 052°42'0 0.0
2014-Aug-17 03:17N 47°34' W 052°42'0 0.0
2014-Aug-17 02:32N 47°34' W 052°42'0 0.0
2014-Aug-17 01:29N 47°34' W 052°42'0 0.0
2014-Aug-17 00:26N 47°34' W 052°42'0 0.0
2014-Aug-16 23:32N 47°34' W 052°42'0 0.0
2014-Aug-16 22:32N 47°34' W 052°42'0 0.0
2014-Aug-16 21:29N 47°34' W 052°42'0 0.0
2014-Aug-16 20:29N 47°34' W 052°42'0 0.0
2014-Aug-16 19:32N 47°34' W 052°42'0 0.0
2014-Aug-16 18:32N 47°34' W 052°42'0 0.0
2014-Aug-16 17:32N 47°34' W 052°42'0 0.0
2014-Aug-16 16:32N 47°34' W 052°42'0 0.0
2014-Aug-16 15:29N 47°34' W 052°42'0 0.0
2014-Aug-16 14:32N 47°34' W 052°42'0 0.0
2014-Aug-16 13:32N 47°34' W 052°42'0 0.0
2014-Aug-16 12:23N 47°34' W 052°42'0 0.0
2014-Aug-16 11:32N 47°34' W 052°42'0 0.0
2014-Aug-16 10:29N 47°34' W 052°42'7 7.1
2014-Aug-16 09:29N 47°32' W 052°32'1010.4
2014-Aug-16 08:33N 47°30' W 052°18'  
2014-Aug-12 02:07N 47°26' W 051°57'710.9
2014-Aug-12 01:30N 47°28' W 052°06'1111.0
2014-Aug-12 00:29N 47°31' W 052°22'  
Track history (hours):
 
Tides and Currents Weather Stations Pressure Air Temp Water Temp Dewpoint Dewpoint Depression Visibility Wind Speed Wind Dir Waves Ship Positions

Maersk Dispatcher

Last reported at 2014-Aug-22 00:29 UTC. Time now 2014-Aug-22 17:40 UTC.
Position N 47°28' W 052°06'.

Length 89 m; draft 6.8 m.

Type: Other ship. MMSI: 316013080.

Date/timePositionNaut miles runAvg speedWind from/ knotsBaromVisibWave heightAir tempDewpointWater temp
2014-Aug-22 00:29N 47°28' W 052°06'1111.6
2014-Aug-21 23:33N 47°31' W 052°22'1211.9
2014-Aug-21 22:33N 47°34' W 052°39'2 2.2
2014-Aug-21 21:33N 47°34' W 052°42'0 0.0
2014-Aug-21 20:30N 47°34' W 052°42'0 0.0
2014-Aug-21 19:30N 47°34' W 052°42'0 0.0
2014-Aug-21 18:30N 47°34' W 052°42'0 0.0
2014-Aug-21 17:27N 47°34' W 052°42'0 0.0
2014-Aug-21 16:33N 47°34' W 052°42'0 0.0
2014-Aug-21 15:33N 47°34' W 052°42'0 0.0
2014-Aug-21 14:30N 47°34' W 052°42'0 0.0
2014-Aug-21 13:30N 47°34' W 052°42'0 0.0
2014-Aug-21 12:21N 47°34' W 052°42'0 0.0
2014-Aug-21 11:30N 47°34' W 052°42'0 0.0
2014-Aug-21 10:33N 47°34' W 052°42'0 0.0
2014-Aug-21 09:33N 47°34' W 052°42'0 0.0
2014-Aug-21 08:33N 47°34' W 052°42'0 0.0
2014-Aug-21 07:30N 47°34' W 052°42'0 0.0
2014-Aug-21 06:33N 47°34' W 052°42'0 0.0
2014-Aug-21 05:33N 47°34' W 052°42'0 0.0
2014-Aug-21 04:33N 47°34' W 052°42'0 0.0
2014-Aug-21 03:33N 47°34' W 052°42'0 0.0
2014-Aug-21 02:33N 47°34' W 052°42'0 0.0
2014-Aug-21 01:33N 47°34' W 052°42'0 0.0
2014-Aug-21 00:27N 47°34' W 052°42'0 0.0
2014-Aug-20 23:33N 47°34' W 052°42'0 0.0
2014-Aug-20 22:27N 47°34' W 052°42'0 0.0
2014-Aug-20 21:15N 47°34' W 052°42'0 0.0
2014-Aug-20 20:30N 47°34' W 052°42'0 0.0
2014-Aug-20 19:33N 47°34' W 052°42'0 0.0
2014-Aug-20 18:27N 47°34' W 052°42'0 0.0
2014-Aug-20 17:24N 47°34' W 052°42'0 0.0
2014-Aug-20 16:30N 47°34' W 052°42'0 0.0
2014-Aug-20 15:33N 47°34' W 052°42'0 0.0
2014-Aug-20 14:30N 47°34' W 052°42'7 6.4
2014-Aug-20 13:29N 47°33' W 052°33'1212.7
2014-Aug-20 12:33N 47°30' W 052°16'6 0.2
2014-Aug-18 23:32N 47°29' W 052°07'1414.3
2014-Aug-18 22:32N 47°32' W 052°28'10 9.3
2014-Aug-18 21:30N 47°34' W 052°42'0 0.0
2014-Aug-18 20:30N 47°34' W 052°42'0 0.0
2014-Aug-18 19:33N 47°34' W 052°42'0 0.0
2014-Aug-18 18:30N 47°34' W 052°42'0 0.0
2014-Aug-18 17:33N 47°34' W 052°42'0 0.0
2014-Aug-18 16:33N 47°34' W 052°42'0 0.0
2014-Aug-18 15:27N 47°34' W 052°42'0 0.0
2014-Aug-18 14:30N 47°34' W 052°42'0 0.0
2014-Aug-18 13:30N 47°34' W 052°42'0 0.0
2014-Aug-18 12:30N 47°34' W 052°42'0 0.0
2014-Aug-18 11:33N 47°34' W 052°42'0 0.0
2014-Aug-18 10:33N 47°34' W 052°42'0 0.0
2014-Aug-18 09:27N 47°34' W 052°42'0 0.0
2014-Aug-18 08:30N 47°34' W 052°42'0 0.0
2014-Aug-18 07:33N 47°34' W 052°42'0 0.0
2014-Aug-18 06:33N 47°34' W 052°42'0 0.0
2014-Aug-18 05:33N 47°34' W 052°42'0 0.0
2014-Aug-18 04:30N 47°34' W 052°42'0 0.0
2014-Aug-18 03:30N 47°34' W 052°42'0 0.0
2014-Aug-18 02:27N 47°34' W 052°42'0 0.0
2014-Aug-18 01:27N 47°34' W 052°42'0 0.0
2014-Aug-18 00:30N 47°34' W 052°42'0 0.0
2014-Aug-17 18:33N 47°34' W 052°42'0 0.1
2014-Aug-17 17:30N 47°34' W 052°42'0 0.0
2014-Aug-17 16:30N 47°34' W 052°42'0 0.5
2014-Aug-17 15:33N 47°34' W 052°42'0 0.0
2014-Aug-17 14:33N 47°34' W 052°42'0 0.0
2014-Aug-17 13:33N 47°34' W 052°42'0 0.0
2014-Aug-17 12:33N 47°34' W 052°42'0 0.0
2014-Aug-17 11:33N 47°34' W 052°42'0 0.4
2014-Aug-17 10:32N 47°34' W 052°42'0 0.0
2014-Aug-17 09:26N 47°34' W 052°42'0 0.0
2014-Aug-17 08:32N 47°34' W 052°42'0 0.0
2014-Aug-17 07:32N 47°34' W 052°42'0 0.0
2014-Aug-17 06:29N 47°34' W 052°42'0 0.0
2014-Aug-17 05:29N 47°34' W 052°42'0 0.0
2014-Aug-17 04:26N 47°34' W 052°42'0 0.0
2014-Aug-17 03:17N 47°34' W 052°42'0 0.0
2014-Aug-17 02:32N 47°34' W 052°42'0 0.0
2014-Aug-17 01:29N 47°34' W 052°42'0 0.0
2014-Aug-17 00:26N 47°34' W 052°42'0 0.0
2014-Aug-16 23:32N 47°34' W 052°42'0 0.0
2014-Aug-16 22:32N 47°34' W 052°42'0 0.0
2014-Aug-16 21:29N 47°34' W 052°42'0 0.0
2014-Aug-16 20:29N 47°34' W 052°42'0 0.0
2014-Aug-16 19:32N 47°34' W 052°42'0 0.0
2014-Aug-16 18:32N 47°34' W 052°42'0 0.0
2014-Aug-16 17:32N 47°34' W 052°42'0 0.0
2014-Aug-16 16:32N 47°34' W 052°42'0 0.0
2014-Aug-16 15:29N 47°34' W 052°42'0 0.0
2014-Aug-16 14:32N 47°34' W 052°42'0 0.0
2014-Aug-16 13:32N 47°34' W 052°42'0 0.0
2014-Aug-16 12:23N 47°34' W 052°42'0 0.0
2014-Aug-16 11:32N 47°34' W 052°42'0 0.0
2014-Aug-16 10:29N 47°34' W 052°42'7 7.1
2014-Aug-16 09:29N 47°32' W 052°32'1010.4
2014-Aug-16 08:33N 47°30' W 052°18'  
2014-Aug-12 02:07N 47°26' W 051°57'710.9
2014-Aug-12 01:30N 47°28' W 052°06'1111.0
2014-Aug-12 00:29N 47°31' W 052°22'  

Dump ship's entire track history